Time;durP1;ratioP1;P1;durP2;ratioP2;P2;SDS_P1;SDS_P2;PMS_P1;PMS_P2;Temp;Humidity;BMP_temperature;BMP_pressure;BME280_temperature;BME280_humidity;BME280_pressure;Samples;Min_cycle;Max_cycle;Signal;HPM_P1;HPM_P2
2023/04/20 00:00:09;;;;;;;;;;;8.40;99.90;;;;;;5175015;27;19907;-39
2023/04/20 00:02:35;;;;;;;;;;;8.40;99.90;;;;;;5173907;27;19910;-38
2023/04/20 00:05:01;;;;;;;;;;;8.40;99.90;;;;;;5174855;27;20396;-39
2023/04/20 00:07:28;;;;;;;;;;;8.50;99.90;;;;;;5174523;27;19910;-38
2023/04/20 00:09:53;;;;;;;;;;;8.50;99.90;;;;;;5174084;27;19915;-39
2023/04/20 00:12:19;;;;;;;;;;;8.50;99.90;;;;;;5174626;27;19906;-40
2023/04/20 00:14:44;;;;;;;;;;;8.50;99.90;;;;;;5173889;27;20349;-40
2023/04/20 00:17:10;;;;;;;;;;;8.60;99.90;;;;;;5174709;27;19914;-40
2023/04/20 00:19:35;;;;;;;;;;;8.50;99.90;;;;;;5174473;27;20328;-40
2023/04/20 00:22:01;;;;;;;;;;;8.60;99.90;;;;;;5173872;27;19907;-40
2023/04/20 00:24:26;;;;;;;;;;;8.60;99.90;;;;;;5174089;27;19914;-40
2023/04/20 00:26:53;;;;;;;;;;;8.60;99.90;;;;;;5174574;27;19993;-40
2023/04/20 00:29:19;;;;;;;;;;;8.70;99.90;;;;;;5173349;27;19918;-39
2023/04/20 00:31:44;;;;;;;;;;;8.70;99.90;;;;;;5174770;27;20301;-39
2023/04/20 00:34:10;;;;;;;;;;;8.80;99.90;;;;;;5174695;27;19911;-39
2023/04/20 00:36:35;;;;;;;;;;;8.80;99.90;;;;;;5173462;27;19914;-40
2023/04/20 00:39:01;;;;;;;;;;;8.80;99.90;;;;;;5174508;27;20254;-40
2023/04/20 00:41:26;;;;;;;;;;;8.80;99.90;;;;;;5174362;27;19911;-39
2023/04/20 00:43:52;;;;;;;;;;;8.90;99.90;;;;;;5173579;27;19918;-39
2023/04/20 00:46:18;;;;;;;;;;;8.90;99.90;;;;;;5174042;27;19978;-39
2023/04/20 00:48:44;;;;;;;;;;;8.90;99.90;;;;;;5178406;27;19906;-39
2023/04/20 00:51:10;;;;;;;;;;;8.90;99.90;;;;;;5177850;27;19916;-39
2023/04/20 00:53:35;;;;;;;;;;;9.00;99.90;;;;;;5178122;27;20047;-39
2023/04/20 00:56:01;;;;;;;;;;;9.00;99.90;;;;;;5165826;27;20278;-40
2023/04/20 00:58:27;;;;;;;;;;;9.00;99.90;;;;;;5162114;27;20002;-39
2023/04/20 01:00:52;;;;;;;;;;;9.00;99.90;;;;;;5176239;27;19918;-40
2023/04/20 01:03:18;;;;;;;;;;;9.00;99.90;;;;;;5169724;27;19990;-39
2023/04/20 01:05:43;;;;;;;;;;;9.00;99.90;;;;;;5170810;27;19919;-41
2023/04/20 01:08:09;;;;;;;;;;;9.00;99.90;;;;;;5157648;27;19910;-40
2023/04/20 01:10:35;;;;;;;;;;;9.10;99.90;;;;;;5157081;27;19918;-42
2023/04/20 01:13:02;;;;;;;;;;;9.00;99.90;;;;;;5156647;27;19907;-40
2023/04/20 01:15:27;;;;;;;;;;;9.00;99.90;;;;;;5156966;27;19918;-39
2023/04/20 01:17:53;;;;;;;;;;;9.00;99.90;;;;;;5176101;27;19911;-40
2023/04/20 01:20:19;;;;;;;;;;;9.10;99.90;;;;;;5177895;27;19915;-40
2023/04/20 01:22:48;;;;;;;;;;;9.00;99.90;;;;;;5178116;27;19906;-39
2023/04/20 01:25:15;;;;;;;;;;;9.10;99.90;;;;;;5177281;27;19926;-39
2023/04/20 01:27:40;;;;;;;;;;;9.10;99.90;;;;;;5178139;27;19974;-39
2023/04/20 01:30:06;;;;;;;;;;;9.10;99.90;;;;;;5177528;27;20334;-39
2023/04/20 01:32:32;;;;;;;;;;;9.10;99.90;;;;;;5176846;27;20469;-39
2023/04/20 01:34:58;;;;;;;;;;;9.10;99.90;;;;;;5165699;27;20055;-39
2023/04/20 01:37:23;;;;;;;;;;;9.10;99.90;;;;;;5156729;27;19907;-39
2023/04/20 01:39:49;;;;;;;;;;;9.10;99.90;;;;;;5156129;27;20285;-39
2023/04/20 01:42:14;;;;;;;;;;;9.10;99.90;;;;;;5156764;27;19911;-39
2023/04/20 01:44:39;;;;;;;;;;;9.10;99.90;;;;;;5156509;27;20059;-40
2023/04/20 01:47:05;;;;;;;;;;;9.00;99.90;;;;;;5168632;27;20324;-41
2023/04/20 01:49:30;;;;;;;;;;;9.00;99.90;;;;;;5177413;27;19918;-39
2023/04/20 01:51:56;;;;;;;;;;;9.10;99.90;;;;;;5177513;27;19914;-39
2023/04/20 01:54:22;;;;;;;;;;;9.00;99.90;;;;;;5176019;27;19911;-39
2023/04/20 01:56:47;;;;;;;;;;;9.00;99.90;;;;;;5177479;27;19963;-39
2023/04/20 01:59:13;;;;;;;;;;;9.00;99.90;;;;;;5176562;27;19907;-39
2023/04/20 02:01:38;;;;;;;;;;;9.00;99.90;;;;;;5176489;27;19907;-40
2023/04/20 02:04:04;;;;;;;;;;;9.00;99.90;;;;;;5177311;27;19993;-39
2023/04/20 02:06:30;;;;;;;;;;;9.00;99.90;;;;;;5176926;27;19911;-39
2023/04/20 02:08:56;;;;;;;;;;;9.00;99.90;;;;;;5176316;27;19930;-39
2023/04/20 02:11:21;;;;;;;;;;;8.90;99.90;;;;;;5176792;27;20341;-39
2023/04/20 02:13:47;;;;;;;;;;;8.90;99.90;;;;;;5177088;27;19917;-39
2023/04/20 02:16:12;;;;;;;;;;;8.90;99.90;;;;;;5175845;27;19917;-40
2023/04/20 02:18:38;;;;;;;;;;;8.90;99.90;;;;;;5176607;27;19970;-40
2023/04/20 02:21:04;;;;;;;;;;;9.00;99.90;;;;;;5176592;27;19918;-40
2023/04/20 02:23:29;;;;;;;;;;;8.90;99.90;;;;;;5175952;27;19908;-39
2023/04/20 02:25:55;;;;;;;;;;;8.90;99.90;;;;;;5176768;27;20372;-39
2023/04/20 02:28:20;;;;;;;;;;;8.90;99.90;;;;;;5175863;27;19911;-41
2023/04/20 02:30:46;;;;;;;;;;;8.90;99.90;;;;;;5172817;27;20017;-39
2023/04/20 02:33:11;;;;;;;;;;;8.90;99.90;;;;;;5165260;27;19954;-40
2023/04/20 02:35:37;;;;;;;;;;;8.80;99.90;;;;;;5166347;27;20380;-40
2023/04/20 02:38:03;;;;;;;;;;;8.80;99.90;;;;;;5170593;27;19907;-40
2023/04/20 02:40:28;;;;;;;;;;;8.70;99.90;;;;;;5155529;27;20348;-40
2023/04/20 02:42:54;;;;;;;;;;;8.70;99.90;;;;;;5154826;27;19912;-41
2023/04/20 02:45:19;;;;;;;;;;;8.60;99.90;;;;;;5155246;27;19915;-40
2023/04/20 02:47:45;;;;;;;;;;;8.60;99.90;;;;;;5173081;27;20125;-40
2023/04/20 02:50:11;;;;;;;;;;;8.60;99.90;;;;;;5175676;27;19910;-40
2023/04/20 02:52:36;;;;;;;;;;;8.60;99.90;;;;;;5176013;27;19914;-39
2023/04/20 02:55:02;;;;;;;;;;;8.50;99.90;;;;;;5176099;27;19911;-39
2023/04/20 02:57:28;;;;;;;;;;;8.50;99.90;;;;;;5175043;27;19907;-41
2023/04/20 02:59:53;;;;;;;;;;;8.50;99.90;;;;;;5176130;27;19910;-39
2023/04/20 03:02:19;;;;;;;;;;;8.60;99.90;;;;;;5175606;27;20349;-40
2023/04/20 03:04:44;;;;;;;;;;;8.60;99.90;;;;;;5175174;27;19918;-39
2023/04/20 03:07:10;;;;;;;;;;;8.60;99.90;;;;;;5157882;27;19957;-39
2023/04/20 03:09:36;;;;;;;;;;;8.70;99.90;;;;;;5154767;27;20278;-40
2023/04/20 03:12:02;;;;;;;;;;;8.60;99.90;;;;;;5153230;27;20005;-40
2023/04/20 03:14:27;;;;;;;;;;;8.60;99.90;;;;;;5175403;27;19911;-39
2023/04/20 03:16:53;;;;;;;;;;;8.60;99.90;;;;;;5175829;27;19910;-40
2023/04/20 03:19:18;;;;;;;;;;;8.60;99.90;;;;;;5174751;27;19907;-39
2023/04/20 03:21:44;;;;;;;;;;;8.70;99.90;;;;;;5175682;27;20349;-39
2023/04/20 03:24:09;;;;;;;;;;;8.70;99.90;;;;;;5175542;27;19962;-39
2023/04/20 03:26:35;;;;;;;;;;;8.70;99.90;;;;;;5174556;27;19958;-39
2023/04/20 03:29:00;;;;;;;;;;;8.70;99.90;;;;;;5173042;27;20010;-40
2023/04/20 03:31:26;;;;;;;;;;;8.70;99.90;;;;;;5161559;27;19968;-39
2023/04/20 03:33:51;;;;;;;;;;;8.70;99.90;;;;;;5168196;27;19918;-39
2023/04/20 03:36:17;;;;;;;;;;;8.70;99.90;;;;;;5174863;27;19911;-40
2023/04/20 03:38:42;;;;;;;;;;;8.70;99.50;;;;;;5174636;27;19914;-42
2023/04/20 03:41:08;;;;;;;;;;;8.70;98.70;;;;;;5175411;27;20353;-39
2023/04/20 03:43:34;;;;;;;;;;;8.70;98.60;;;;;;5174705;27;19978;-39
2023/04/20 03:45:59;;;;;;;;;;;8.70;99.20;;;;;;5174334;27;20010;-40
2023/04/20 03:48:25;;;;;;;;;;;8.70;99.00;;;;;;5174932;27;19914;-39
2023/04/20 03:50:50;;;;;;;;;;;8.70;99.20;;;;;;5175179;27;19906;-40
2023/04/20 03:53:16;;;;;;;;;;;8.70;99.40;;;;;;5167797;27;19963;-40
2023/04/20 03:55:41;;;;;;;;;;;8.70;99.60;;;;;;5154244;27;19907;-39
2023/04/20 03:58:08;;;;;;;;;;;8.70;99.90;;;;;;5154292;27;20273;-39
2023/04/20 04:00:33;;;;;;;;;;;8.70;99.90;;;;;;5153134;27;19961;-40
2023/04/20 04:02:59;;;;;;;;;;;8.70;99.90;;;;;;5160364;27;19948;-39
2023/04/20 04:05:24;;;;;;;;;;;8.70;99.90;;;;;;5174605;27;19922;-39
2023/04/20 04:07:50;;;;;;;;;;;8.70;99.90;;;;;;5174160;27;19965;-39
2023/04/20 04:10:17;;;;;;;;;;;8.60;99.90;;;;;;5174641;27;19907;-40
2023/04/20 04:12:43;;;;;;;;;;;8.60;99.90;;;;;;5174587;27;19959;-40
2023/04/20 04:15:09;;;;;;;;;;;8.50;99.90;;;;;;5174075;27;20001;-40
2023/04/20 04:17:34;;;;;;;;;;;8.50;99.90;;;;;;5174454;27;19922;-39
2023/04/20 04:20:00;;;;;;;;;;;8.40;99.90;;;;;;5174774;27;19914;-40
2023/04/20 04:22:25;;;;;;;;;;;8.40;99.90;;;;;;5173180;27;19911;-40
2023/04/20 04:24:53;;;;;;;;;;;8.40;99.90;;;;;;5174626;27;20444;-39
2023/04/20 04:27:19;;;;;;;;;;;8.30;99.90;;;;;;5174270;27;19906;-39
2023/04/20 04:29:45;;;;;;;;;;;8.30;99.90;;;;;;5173504;27;19918;-39
2023/04/20 04:32:11;;;;;;;;;;;8.20;99.90;;;;;;5174366;27;19911;-39
2023/04/20 04:34:37;;;;;;;;;;;8.10;99.90;;;;;;5174363;27;19914;-39
2023/04/20 04:37:02;;;;;;;;;;;8.00;99.90;;;;;;5173861;27;19938;-39
2023/04/20 04:39:28;;;;;;;;;;;8.00;99.90;;;;;;5174184;27;19961;-39
2023/04/20 04:41:54;;;;;;;;;;;7.90;99.90;;;;;;5173379;27;19918;-39
2023/04/20 04:44:20;;;;;;;;;;;7.90;99.90;;;;;;5174501;27;19911;-39
2023/04/20 04:46:46;;;;;;;;;;;7.90;99.90;;;;;;5174482;27;19910;-39
2023/04/20 04:49:12;;;;;;;;;;;7.90;99.90;;;;;;5173833;27;19983;-39
2023/04/20 04:51:37;;;;;;;;;;;7.90;99.90;;;;;;5173854;27;20310;-39
2023/04/20 04:54:03;;;;;;;;;;;7.80;99.90;;;;;;5174473;27;19907;-40
2023/04/20 04:56:28;;;;;;;;;;;7.80;99.90;;;;;;5173366;27;19914;-39
2023/04/20 04:58:54;;;;;;;;;;;7.80;99.90;;;;;;5174370;27;20373;-39
2023/04/20 05:01:20;;;;;;;;;;;7.80;99.90;;;;;;5173907;27;19911;-39
2023/04/20 05:03:45;;;;;;;;;;;7.80;99.90;;;;;;5173493;27;19907;-39
2023/04/20 05:06:11;;;;;;;;;;;7.90;99.90;;;;;;5174352;27;19926;-39
2023/04/20 05:08:36;;;;;;;;;;;7.90;99.90;;;;;;5173847;27;20028;-40
2023/04/20 05:11:02;;;;;;;;;;;7.90;99.90;;;;;;5173328;27;19911;-40
2023/04/20 05:13:27;;;;;;;;;;;7.90;99.90;;;;;;5173891;27;19949;-39
2023/04/20 05:15:53;;;;;;;;;;;7.90;99.90;;;;;;5174243;27;19911;-39
2023/04/20 05:18:18;;;;;;;;;;;7.90;99.90;;;;;;5173313;27;19907;-40
2023/04/20 05:20:44;;;;;;;;;;;7.90;99.90;;;;;;5173986;27;19918;-39
2023/04/20 05:23:09;;;;;;;;;;;7.90;99.90;;;;;;5174183;27;19918;-39
2023/04/20 05:25:35;;;;;;;;;;;7.90;99.90;;;;;;5170061;27;19918;-39
2023/04/20 05:28:00;;;;;;;;;;;7.90;99.90;;;;;;5160883;27;19916;-39
2023/04/20 05:30:26;;;;;;;;;;;7.90;99.90;;;;;;5154705;27;19997;-40
2023/04/20 05:32:51;;;;;;;;;;;7.90;99.90;;;;;;5173393;27;19940;-40
2023/04/20 05:35:17;;;;;;;;;;;7.90;99.90;;;;;;5173545;27;19914;-40
2023/04/20 05:37:42;;;;;;;;;;;7.90;99.90;;;;;;5167709;27;20329;-40
2023/04/20 05:40:08;;;;;;;;;;;7.90;99.90;;;;;;5176413;27;19914;-39
2023/04/20 05:42:34;;;;;;;;;;;8.00;99.90;;;;;;5175428;27;20357;-40
2023/04/20 05:44:59;;;;;;;;;;;8.00;99.90;;;;;;5176902;27;19927;-39
2023/04/20 05:47:26;;;;;;;;;;;8.00;99.90;;;;;;5176041;27;19938;-39
2023/04/20 05:49:52;;;;;;;;;;;8.00;99.90;;;;;;5176787;27;19914;-39
2023/04/20 05:52:17;;;;;;;;;;;8.00;99.90;;;;;;5175663;27;19911;-40
2023/04/20 05:54:43;;;;;;;;;;;7.90;99.90;;;;;;5176717;27;19906;-40
2023/04/20 05:57:08;;;;;;;;;;;8.00;99.90;;;;;;5177245;27;20246;-39
2023/04/20 05:59:34;;;;;;;;;;;7.90;99.90;;;;;;5175507;27;19998;-39
2023/04/20 06:02:00;;;;;;;;;;;7.90;99.90;;;;;;5176807;27;19983;-39
2023/04/20 06:04:25;;;;;;;;;;;7.90;99.90;;;;;;5173540;27;19922;-40
2023/04/20 06:06:51;;;;;;;;;;;7.90;99.90;;;;;;5175464;27;20377;-41
2023/04/20 06:09:17;;;;;;;;;;;7.80;99.90;;;;;;5171782;27;19911;-40
2023/04/20 06:11:42;;;;;;;;;;;7.80;99.90;;;;;;5171852;27;19910;-40
2023/04/20 06:14:10;;;;;;;;;;;7.70;99.90;;;;;;5175507;27;19970;-41
2023/04/20 06:16:36;;;;;;;;;;;7.70;99.90;;;;;;5175290;27;19910;-40
2023/04/20 06:19:02;;;;;;;;;;;7.60;99.90;;;;;;5176299;27;19979;-39
2023/04/20 06:21:27;;;;;;;;;;;7.60;99.90;;;;;;5175249;27;20365;-40
2023/04/20 06:23:53;;;;;;;;;;;7.50;99.90;;;;;;5176322;27;19949;-40
2023/04/20 06:26:18;;;;;;;;;;;7.50;99.90;;;;;;5175993;27;19922;-40
2023/04/20 06:28:46;;;;;;;;;;;7.40;99.90;;;;;;5175028;27;19914;-40
2023/04/20 06:31:11;;;;;;;;;;;7.30;99.90;;;;;;5176302;27;19910;-39
2023/04/20 06:33:37;;;;;;;;;;;7.20;99.90;;;;;;5174861;27;20009;-39
2023/04/20 06:36:05;;;;;;;;;;;7.20;99.90;;;;;;5175308;27;19914;-40
2023/04/20 06:38:30;;;;;;;;;;;7.20;99.90;;;;;;5175595;27;19906;-39
2023/04/20 06:40:57;;;;;;;;;;;7.10;99.90;;;;;;5176361;27;20289;-39
2023/04/20 06:43:23;;;;;;;;;;;7.10;99.90;;;;;;5175372;27;19999;-39
2023/04/20 06:45:48;;;;;;;;;;;7.00;99.90;;;;;;5176142;27;19927;-39
2023/04/20 06:48:14;;;;;;;;;;;7.00;99.90;;;;;;5174794;27;19925;-39
2023/04/20 06:50:39;;;;;;;;;;;6.90;99.90;;;;;;5166142;27;19911;-40
2023/04/20 06:53:05;;;;;;;;;;;6.90;99.90;;;;;;5155467;27;19915;-39
2023/04/20 06:55:30;;;;;;;;;;;6.90;99.90;;;;;;5171620;27;19914;-41
2023/04/20 06:57:56;;;;;;;;;;;6.90;99.90;;;;;;5176201;27;19921;-39
2023/04/20 07:00:21;;;;;;;;;;;6.90;99.90;;;;;;5175292;27;20387;-39
2023/04/20 07:02:48;;;;;;;;;;;6.90;99.90;;;;;;5172575;27;20010;-39
2023/04/20 07:05:14;;;;;;;;;;;6.90;99.90;;;;;;5170253;27;19922;-39
2023/04/20 07:07:40;;;;;;;;;;;6.90;99.90;;;;;;5159689;27;20005;-39
2023/04/20 07:10:06;;;;;;;;;;;6.90;99.90;;;;;;5159381;27;19907;-39
2023/04/20 07:12:33;;;;;;;;;;;6.90;99.90;;;;;;5169811;27;19967;-39
2023/04/20 07:14:58;;;;;;;;;;;6.90;99.90;;;;;;5154866;27;20354;-39
2023/04/20 07:17:26;;;;;;;;;;;7.00;99.90;;;;;;5153904;27;19907;-39
2023/04/20 07:19:52;;;;;;;;;;;7.00;99.90;;;;;;5174833;27;19922;-39
2023/04/20 07:22:17;;;;;;;;;;;7.10;99.90;;;;;;5173343;27;19906;-40
2023/04/20 07:24:43;;;;;;;;;;;7.10;99.90;;;;;;5153932;27;20022;-40
2023/04/20 07:27:08;;;;;;;;;;;7.10;99.90;;;;;;5154857;27;19907;-39
2023/04/20 07:29:33;;;;;;;;;;;7.10;99.90;;;;;;5167071;27;20363;-40
2023/04/20 07:31:59;;;;;;;;;;;7.10;99.90;;;;;;5166147;27;19915;-39
2023/04/20 07:34:25;;;;;;;;;;;7.20;99.90;;;;;;5167601;27;19933;-39
2023/04/20 07:36:50;;;;;;;;;;;7.20;99.90;;;;;;5174079;27;20001;-39
2023/04/20 07:39:15;;;;;;;;;;;7.40;99.90;;;;;;5174205;27;19911;-40
2023/04/20 07:41:41;;;;;;;;;;;7.50;99.90;;;;;;5175143;27;19914;-39
2023/04/20 07:44:06;;;;;;;;;;;7.60;99.90;;;;;;5175427;27;20246;-39
2023/04/20 07:46:32;;;;;;;;;;;7.70;99.90;;;;;;5174218;27;19911;-39
2023/04/20 07:48:57;;;;;;;;;;;7.70;99.90;;;;;;5175218;27;19914;-39
2023/04/20 07:51:23;;;;;;;;;;;7.80;99.90;;;;;;5174895;27;20049;-39
2023/04/20 07:53:48;;;;;;;;;;;7.80;99.90;;;;;;5174253;27;19970;-39
2023/04/20 07:56:14;;;;;;;;;;;7.80;99.90;;;;;;5171133;27;19907;-39
2023/04/20 07:58:39;;;;;;;;;;;7.80;99.90;;;;;;5153922;27;19951;-39
2023/04/20 08:01:05;;;;;;;;;;;7.90;99.90;;;;;;5153318;27;19971;-40
2023/04/20 08:03:32;;;;;;;;;;;8.00;99.90;;;;;;5148578;27;19972;-39
2023/04/20 08:05:57;;;;;;;;;;;8.00;99.90;;;;;;5160634;27;20095;-40
2023/04/20 08:08:23;;;;;;;;;;;8.10;99.90;;;;;;5173220;27;20080;-39
2023/04/20 08:10:48;;;;;;;;;;;8.10;99.90;;;;;;5174710;27;20365;-40
2023/04/20 08:13:14;;;;;;;;;;;8.20;99.90;;;;;;5174357;27;19910;-39
2023/04/20 08:15:40;;;;;;;;;;;8.30;99.90;;;;;;5174690;27;19942;-39
2023/04/20 08:18:05;;;;;;;;;;;8.40;99.90;;;;;;5174839;27;19985;-39
2023/04/20 08:20:30;;;;;;;;;;;8.50;99.90;;;;;;5173796;27;19914;-40
2023/04/20 08:22:56;;;;;;;;;;;8.50;99.90;;;;;;5174768;27;19914;-39
2023/04/20 08:25:21;;;;;;;;;;;8.60;99.90;;;;;;5174412;27;20352;-39
2023/04/20 08:27:47;;;;;;;;;;;8.70;99.90;;;;;;5166069;27;19911;-39
2023/04/20 08:30:12;;;;;;;;;;;8.70;99.90;;;;;;5166573;27;19919;-40
2023/04/20 08:32:39;;;;;;;;;;;8.70;99.90;;;;;;5163431;27;19907;-40
2023/04/20 08:35:05;;;;;;;;;;;8.60;99.90;;;;;;5172512;27;19929;-39
2023/04/20 08:37:30;;;;;;;;;;;8.60;99.90;;;;;;5153380;27;20421;-39
2023/04/20 08:39:56;;;;;;;;;;;8.60;99.90;;;;;;5162942;27;19930;-40
2023/04/20 08:42:21;;;;;;;;;;;8.50;99.90;;;;;;5161900;27;19914;-39
2023/04/20 08:44:47;;;;;;;;;;;8.60;99.90;;;;;;5156982;27;19966;-40
2023/04/20 08:47:13;;;;;;;;;;;8.70;99.90;;;;;;5173803;27;19906;-39
2023/04/20 08:49:38;;;;;;;;;;;8.70;99.90;;;;;;5173153;27;19914;-39
2023/04/20 08:52:04;;;;;;;;;;;8.80;99.90;;;;;;5166508;27;19911;-39
2023/04/20 08:54:30;;;;;;;;;;;8.70;99.90;;;;;;5157496;27;20322;-39
2023/04/20 08:56:57;;;;;;;;;;;8.80;99.90;;;;;;5156953;27;20308;-39
2023/04/20 08:59:23;;;;;;;;;;;8.80;99.90;;;;;;5166077;27;20399;-40
2023/04/20 09:01:48;;;;;;;;;;;8.80;99.90;;;;;;5171326;27;19915;-39
2023/04/20 09:04:21;;;;;;;;;;;8.80;99.90;;;;;;5160639;27;19911;-39
2023/04/20 09:06:49;;;;;;;;;;;8.80;99.90;;;;;;5158597;27;19911;-39
2023/04/20 09:09:14;;;;;;;;;;;8.80;99.90;;;;;;5159749;27;19918;-40
2023/04/20 09:11:40;;;;;;;;;;;8.80;99.90;;;;;;5158937;27;19923;-40
2023/04/20 09:14:09;;;;;;;;;;;8.70;99.90;;;;;;5157647;27;19915;-40
2023/04/20 09:16:34;;;;;;;;;;;8.70;99.90;;;;;;5175496;27;19911;-40
2023/04/20 09:19:00;;;;;;;;;;;8.70;99.90;;;;;;5162161;27;20391;-39
2023/04/20 09:21:27;;;;;;;;;;;8.70;99.90;;;;;;5163761;27;19918;-39
2023/04/20 09:23:54;;;;;;;;;;;8.70;99.90;;;;;;5160077;27;19911;-40
2023/04/20 09:26:20;;;;;;;;;;;8.80;99.90;;;;;;5168223;27;19915;-39
2023/04/20 09:28:46;;;;;;;;;;;8.90;99.90;;;;;;5156773;27;19911;-39
2023/04/20 09:31:18;;;;;;;;;;;9.10;99.90;;;;;;5156377;27;19925;-40
2023/04/20 09:33:43;;;;;;;;;;;9.10;99.90;;;;;;5157139;27;19911;-39
2023/04/20 09:36:09;;;;;;;;;;;9.10;99.90;;;;;;5168116;27;20464;-42
2023/04/20 09:38:35;;;;;;;;;;;9.20;99.90;;;;;;5164286;27;19915;-40
2023/04/20 09:41:01;;;;;;;;;;;9.20;99.90;;;;;;5157021;27;19918;-40
2023/04/20 09:43:27;;;;;;;;;;;9.20;99.90;;;;;;5156515;27;20377;-39
2023/04/20 09:45:53;;;;;;;;;;;9.30;99.90;;;;;;5164257;27;19923;-39
2023/04/20 09:48:20;;;;;;;;;;;9.30;99.90;;;;;;5173139;27;19918;-39
2023/04/20 09:50:46;;;;;;;;;;;9.50;99.90;;;;;;5166627;27;19918;-39
2023/04/20 09:53:12;;;;;;;;;;;9.70;99.90;;;;;;5165999;27;19907;-39
2023/04/20 09:55:38;;;;;;;;;;;9.80;99.90;;;;;;5177248;27;19919;-40
2023/04/20 09:58:03;;;;;;;;;;;9.80;99.90;;;;;;5177857;27;19913;-40
2023/04/20 10:00:29;;;;;;;;;;;9.80;99.90;;;;;;5176831;27;19913;-40
2023/04/20 10:02:55;;;;;;;;;;;9.90;99.90;;;;;;5177279;27;20005;-39
2023/04/20 10:05:38;;;;;;;;;;;9.90;99.90;;;;;;5174075;27;20258;-39
2023/04/20 10:08:04;;;;;;;;;;;9.80;99.90;;;;;;5175089;27;20372;-40
2023/04/20 10:10:29;;;;;;;;;;;9.80;99.90;;;;;;5174594;27;19907;-40
2023/04/20 10:12:56;;;;;;;;;;;9.70;99.90;;;;;;5169737;27;20053;-40
2023/04/20 10:15:23;;;;;;;;;;;9.70;99.90;;;;;;5163699;27;19907;-39
2023/04/20 10:17:48;;;;;;;;;;;9.70;99.90;;;;;;5155973;27;19918;-39
2023/04/20 10:20:18;;;;;;;;;;;9.70;99.90;;;;;;5175451;27;20276;-40
2023/04/20 10:22:43;;;;;;;;;;;9.70;99.90;;;;;;5172035;27;20033;-41
2023/04/20 10:25:17;;;;;;;;;;;9.80;99.90;;;;;;5174685;27;20041;-39
2023/04/20 10:27:52;;;;;;;;;;;10.00;99.90;;;;;;5174424;27;20184;-39
2023/04/20 10:30:18;;;;;;;;;;;10.20;99.90;;;;;;5175453;27;19918;-39
2023/04/20 10:32:44;;;;;;;;;;;10.40;99.90;;;;;;5176104;27;19911;-40
2023/04/20 10:35:09;;;;;;;;;;;10.70;99.90;;;;;;5175401;27;20420;-39
2023/04/20 10:37:45;;;;;;;;;;;11.00;99.90;;;;;;5175127;27;20289;-40
2023/04/20 10:40:11;;;;;;;;;;;11.20;99.90;;;;;;5175391;27;20400;-39
2023/04/20 10:42:43;;;;;;;;;;;11.40;99.90;;;;;;5173519;27;19998;-39
2023/04/20 10:45:09;;;;;;;;;;;11.40;99.90;;;;;;5174898;27;19923;-39
2023/04/20 10:47:36;;;;;;;;;;;11.40;99.90;;;;;;5159413;27;19911;-39
2023/04/20 10:50:09;;;;;;;;;;;11.30;99.90;;;;;;5156400;27;19965;-39
2023/04/20 10:52:35;;;;;;;;;;;11.20;99.90;;;;;;5175132;27;19911;-39
2023/04/20 10:55:01;;;;;;;;;;;11.20;99.90;;;;;;5167234;27;20254;-40
2023/04/20 10:57:27;;;;;;;;;;;11.20;99.90;;;;;;5168225;27;19997;-39
2023/04/20 10:59:52;;;;;;;;;;;11.10;99.90;;;;;;5154690;27;20026;-39
2023/04/20 11:02:18;;;;;;;;;;;11.00;99.90;;;;;;5157880;27;19911;-39
2023/04/20 11:04:43;;;;;;;;;;;10.90;99.90;;;;;;5166838;27;19921;-39
2023/04/20 11:07:12;;;;;;;;;;;10.80;99.90;;;;;;5166553;27;20249;-38
2023/04/20 11:09:38;;;;;;;;;;;10.80;99.90;;;;;;5158969;27;19915;-39
2023/04/20 11:12:04;;;;;;;;;;;11.10;99.90;;;;;;5158420;27;20614;-39
2023/04/20 11:14:31;;;;;;;;;;;11.50;99.90;;;;;;5156989;27;19911;-39
2023/04/20 11:16:56;;;;;;;;;;;12.10;99.90;;;;;;5164842;27;19911;-40
2023/04/20 11:19:23;;;;;;;;;;;12.50;99.90;;;;;;5155860;27;20005;-39
2023/04/20 11:21:49;;;;;;;;;;;12.80;99.90;;;;;;5173006;27;20410;-39
2023/04/20 11:24:22;;;;;;;;;;;13.10;99.90;;;;;;5160269;27;19911;-41
2023/04/20 11:26:52;;;;;;;;;;;13.20;99.90;;;;;;5165092;27;19962;-39
2023/04/20 11:29:27;;;;;;;;;;;13.10;99.90;;;;;;5173696;27;19922;-39
2023/04/20 11:31:53;;;;;;;;;;;13.20;99.90;;;;;;5155110;27;19915;-39
2023/04/20 11:34:18;;;;;;;;;;;13.30;99.90;;;;;;5167025;27;19922;-39
2023/04/20 11:36:45;;;;;;;;;;;13.40;99.90;;;;;;5174493;27;20358;-40
2023/04/20 11:39:12;;;;;;;;;;;13.30;99.90;;;;;;5173644;27;19918;-39
2023/04/20 11:41:41;;;;;;;;;;;13.40;99.90;;;;;;5173520;27;20169;-39
2023/04/20 11:44:06;;;;;;;;;;;13.30;99.90;;;;;;5172944;27;19915;-40
2023/04/20 11:46:36;;;;;;;;;;;13.30;99.90;;;;;;5174452;27;19930;-39
2023/04/20 11:49:03;;;;;;;;;;;13.30;99.90;;;;;;5168198;27;19922;-39
2023/04/20 11:51:30;;;;;;;;;;;13.20;99.90;;;;;;5170463;27;19910;-39
2023/04/20 11:53:55;;;;;;;;;;;13.00;99.90;;;;;;5162482;27;19915;-39
2023/04/20 11:56:21;;;;;;;;;;;12.90;99.90;;;;;;5174891;27;19913;-39
2023/04/20 11:58:46;;;;;;;;;;;12.80;99.90;;;;;;5164360;27;20280;-39
2023/04/20 12:01:12;;;;;;;;;;;12.60;99.90;;;;;;5173848;27;19950;-39
2023/04/20 12:03:37;;;;;;;;;;;12.60;99.90;;;;;;5170319;27;19911;-41
2023/04/20 12:06:03;;;;;;;;;;;12.80;99.90;;;;;;5162110;27;19926;-39
2023/04/20 12:08:28;;;;;;;;;;;12.80;99.90;;;;;;5174025;27;20322;-39
2023/04/20 12:10:54;;;;;;;;;;;12.80;99.90;;;;;;5164847;27;20395;-39
2023/04/20 12:13:19;;;;;;;;;;;12.80;99.90;;;;;;5153092;27;19918;-39
2023/04/20 12:15:45;;;;;;;;;;;13.10;99.90;;;;;;5162980;27;19911;-39
2023/04/20 12:18:10;;;;;;;;;;;13.30;99.90;;;;;;5161921;27;19907;-39
2023/04/20 12:20:36;;;;;;;;;;;13.20;99.90;;;;;;5160890;27;20372;-40
2023/04/20 12:23:01;;;;;;;;;;;13.00;99.90;;;;;;5158671;27;20397;-39
2023/04/20 12:25:27;;;;;;;;;;;12.80;99.90;;;;;;5166052;27;19946;-39
2023/04/20 12:27:52;;;;;;;;;;;13.00;99.90;;;;;;5171477;27;20380;-40
2023/04/20 12:30:18;;;;;;;;;;;13.10;99.90;;;;;;5173159;27;19979;-41
2023/04/20 12:32:43;;;;;;;;;;;13.20;99.90;;;;;;5172784;27;20308;-40
2023/04/20 12:35:09;;;;;;;;;;;13.40;99.90;;;;;;5172503;27;20391;-39
2023/04/20 12:37:34;;;;;;;;;;;13.70;99.90;;;;;;5174106;27;19918;-39
2023/04/20 12:40:00;;;;;;;;;;;13.60;99.90;;;;;;5174528;27;20005;-39
2023/04/20 12:42:26;;;;;;;;;;;13.60;99.90;;;;;;5173644;27;19907;-39
2023/04/20 12:44:53;;;;;;;;;;;13.50;99.90;;;;;;5178413;27;19923;-38
2023/04/20 12:47:18;;;;;;;;;;;13.10;99.90;;;;;;5177902;27;19945;-39
2023/04/20 12:49:44;;;;;;;;;;;12.90;99.90;;;;;;5178903;27;19942;-40
2023/04/20 12:52:09;;;;;;;;;;;13.00;99.90;;;;;;5178647;27;20440;-39
2023/04/20 12:54:35;;;;;;;;;;;13.10;99.90;;;;;;5177585;27;19961;-40
2023/04/20 12:57:01;;;;;;;;;;;13.40;99.90;;;;;;5178576;27;20001;-40
2023/04/20 12:59:26;;;;;;;;;;;13.80;99.90;;;;;;5178391;27;19953;-39
2023/04/20 13:01:52;;;;;;;;;;;14.00;99.90;;;;;;5177819;27;19942;-41
2023/04/20 13:04:17;;;;;;;;;;;14.00;99.90;;;;;;5178304;27;20436;-39
2023/04/20 13:06:43;;;;;;;;;;;14.20;99.90;;;;;;5178327;27;19922;-39
2023/04/20 13:09:08;;;;;;;;;;;14.30;99.90;;;;;;5177797;27;19911;-40
2023/04/20 13:11:34;;;;;;;;;;;14.30;99.90;;;;;;5178196;27;20448;-39
2023/04/20 13:13:59;;;;;;;;;;;14.20;99.90;;;;;;5178354;27;19915;-39
2023/04/20 13:16:25;;;;;;;;;;;13.90;99.90;;;;;;5177075;27;19955;-39
2023/04/20 13:18:50;;;;;;;;;;;13.80;99.90;;;;;;5178245;27;19931;-39
2023/04/20 13:21:16;;;;;;;;;;;13.80;99.90;;;;;;5178081;27;19906;-41
2023/04/20 13:23:41;;;;;;;;;;;14.20;99.90;;;;;;5177419;27;19964;-40
2023/04/20 13:26:07;;;;;;;;;;;14.70;99.90;;;;;;5177790;27;19922;-39
2023/04/20 13:28:32;;;;;;;;;;;14.80;99.90;;;;;;5177838;27;20062;-40
2023/04/20 13:30:58;;;;;;;;;;;14.90;99.90;;;;;;5176654;27;19922;-40
2023/04/20 13:33:24;;;;;;;;;;;15.40;99.90;;;;;;5177595;27;19917;-40
2023/04/20 13:35:50;;;;;;;;;;;16.00;99.90;;;;;;5177900;27;19917;-39
2023/04/20 13:38:15;;;;;;;;;;;16.30;98.00;;;;;;5176997;27;19918;-40
2023/04/20 13:40:42;;;;;;;;;;;16.60;98.00;;;;;;5177905;27;19959;-40
2023/04/20 13:43:08;;;;;;;;;;;17.00;95.60;;;;;;5177538;27;20349;-39
2023/04/20 13:45:33;;;;;;;;;;;17.20;92.70;;;;;;5176598;27;20387;-40
2023/04/20 13:47:59;;;;;;;;;;;17.40;90.40;;;;;;5177704;27;20318;-40
2023/04/20 13:50:24;;;;;;;;;;;17.70;93.50;;;;;;5177089;27;19907;-40
2023/04/20 13:52:50;;;;;;;;;;;17.50;78.00;;;;;;5177152;27;19949;-40
2023/04/20 13:55:16;;;;;;;;;;;17.20;81.70;;;;;;5176369;27;19972;-40
2023/04/20 13:57:42;;;;;;;;;;;16.70;81.00;;;;;;5176669;27;20272;-40
2023/04/20 14:00:08;;;;;;;;;;;16.30;87.40;;;;;;5177776;27;19997;-39
2023/04/20 14:02:33;;;;;;;;;;;15.90;90.50;;;;;;5177051;27;20284;-39
2023/04/20 14:04:58;;;;;;;;;;;15.60;90.90;;;;;;5176311;27;20399;-39
2023/04/20 14:07:24;;;;;;;;;;;16.10;94.60;;;;;;5177047;27;19958;-40
2023/04/20 14:09:51;;;;;;;;;;;16.70;94.40;;;;;;5177215;27;19914;-39
2023/04/20 14:12:18;;;;;;;;;;;17.30;91.90;;;;;;5176200;27;19930;-40
2023/04/20 14:14:44;;;;;;;;;;;18.00;94.20;;;;;;5176899;27;19915;-40
2023/04/20 14:17:10;;;;;;;;;;;18.60;80.40;;;;;;5177215;27;19929;-40